createdAt,value
2024-03-11T00:00:19.412Z,0.70
2024-03-11T00:02:47.376Z,0.60
2024-03-11T00:05:16.681Z,0.70
2024-03-11T00:07:47.795Z,0.55
2024-03-11T00:10:19.965Z,0.70
2024-03-11T00:12:51.271Z,1.02
2024-03-11T00:15:22.066Z,0.90
2024-03-11T00:17:50.370Z,1.27
2024-03-11T00:20:18.483Z,1.02
2024-03-11T00:22:47.881Z,0.85
2024-03-11T00:25:15.652Z,0.70
2024-03-11T00:27:43.229Z,0.70
2024-03-11T00:30:12.377Z,0.82
2024-03-11T00:32:47.386Z,0.75
2024-03-11T00:35:16.523Z,0.70
2024-03-11T00:37:44.439Z,0.70
2024-03-11T00:40:14.425Z,0.50
2024-03-11T00:42:42.160Z,0.60
2024-03-11T00:45:11.584Z,0.55
2024-03-11T00:47:42.456Z,1.90
2024-03-11T00:50:11.662Z,0.60
2024-03-11T00:52:39.518Z,0.40
2024-03-11T00:55:09.386Z,0.80
2024-03-11T00:57:38.641Z,0.70
2024-03-11T01:00:07.086Z,0.73
2024-03-11T01:02:34.948Z,0.88
2024-03-11T01:05:02.679Z,0.65
2024-03-11T01:07:39.136Z,0.75
2024-03-11T01:10:12.948Z,0.60
2024-03-11T01:12:42.990Z,0.65
2024-03-11T01:15:11.293Z,0.70
2024-03-11T01:17:41.154Z,0.80
2024-03-11T01:20:11.459Z,1.00
2024-03-11T01:22:41.232Z,0.98
2024-03-11T01:25:10.685Z,1.20
2024-03-11T01:27:38.656Z,1.02
2024-03-11T01:30:08.990Z,0.90
2024-03-11T01:32:38.460Z,0.95
2024-03-11T01:35:06.706Z,0.80
2024-03-11T01:37:34.835Z,0.93
2024-03-11T01:40:02.564Z,0.90
2024-03-11T01:42:30.291Z,0.90
2024-03-11T01:44:58.620Z,0.80
2024-03-11T01:47:28.879Z,0.70
2024-03-11T01:50:00.667Z,0.93
2024-03-11T01:52:30.718Z,1.90
2024-03-11T01:54:58.518Z,1.20
2024-03-11T01:57:27.892Z,0.95
2024-03-11T01:59:55.813Z,1.00
2024-03-11T02:02:25.280Z,0.90
2024-03-11T02:04:54.501Z,1.10
2024-03-11T02:07:23.417Z,0.98
2024-03-11T02:09:50.971Z,1.13
2024-03-11T02:12:19.888Z,1.48
2024-03-11T02:14:48.184Z,1.60
2024-03-11T02:17:17.127Z,1.30
2024-03-11T02:19:45.038Z,1.55
2024-03-11T02:22:14.154Z,2.20
2024-03-11T02:24:43.084Z,1.80
2024-03-11T02:27:11.068Z,2.00
2024-03-11T02:29:39.635Z,1.88
2024-03-11T02:32:08.836Z,2.00
2024-03-11T02:34:36.919Z,1.52
2024-03-11T02:37:04.490Z,1.30
2024-03-11T02:39:34.861Z,1.20
2024-03-11T02:42:03.953Z,1.30
2024-03-11T02:44:31.584Z,2.28
2024-03-11T02:46:59.145Z,1.55
2024-03-11T02:49:26.744Z,0.80
2024-03-11T02:51:54.747Z,1.02
2024-03-11T02:54:27.625Z,1.20
2024-03-11T02:56:55.179Z,1.20
2024-03-11T02:59:24.197Z,1.25
2024-03-11T03:01:52.010Z,1.20
2024-03-11T03:04:20.144Z,0.90
2024-03-11T03:06:47.896Z,0.68
2024-03-11T03:09:16.224Z,0.70
2024-03-11T03:11:44.011Z,1.00
2024-03-11T03:14:11.914Z,0.95
2024-03-11T03:16:40.825Z,0.80
2024-03-11T03:19:08.390Z,0.80
2024-03-11T03:21:37.127Z,1.00
2024-03-11T03:24:04.841Z,0.85
2024-03-11T03:26:32.447Z,0.70
2024-03-11T03:29:00.059Z,1.05
2024-03-11T03:31:28.390Z,0.80
2024-03-11T03:33:57.414Z,0.70
2024-03-11T03:36:24.969Z,0.90
2024-03-11T03:38:53.206Z,0.60
2024-03-11T03:41:20.835Z,1.00
2024-03-11T03:43:49.949Z,0.70
2024-03-11T03:46:18.255Z,0.90
2024-03-11T03:48:47.532Z,1.00
2024-03-11T03:51:17.113Z,0.63
2024-03-11T03:53:45.539Z,0.90
2024-03-11T03:56:13.809Z,1.10
2024-03-11T03:58:42.496Z,1.00
2024-03-11T04:01:10.526Z,0.65
2024-03-11T04:03:38.115Z,0.90
2024-03-11T04:06:06.870Z,0.70
2024-03-11T04:08:36.044Z,0.60
2024-03-11T04:11:03.723Z,0.70
2024-03-11T04:13:31.892Z,0.75
2024-03-11T04:15:59.578Z,0.80
2024-03-11T04:18:27.205Z,0.70
2024-03-11T04:20:57.158Z,0.90
2024-03-11T04:23:27.471Z,1.10
2024-03-11T04:25:57.971Z,1.00
2024-03-11T04:28:29.722Z,1.27
2024-03-11T04:33:25.553Z,1.10
2024-03-11T04:35:53.414Z,1.17
2024-03-11T04:38:21.194Z,1.40
2024-03-11T04:40:49.001Z,1.08
2024-03-11T04:43:18.533Z,1.02
2024-03-11T04:45:46.964Z,1.65
2024-03-11T04:48:15.333Z,1.17
2024-03-11T04:50:44.873Z,1.20
2024-03-11T04:53:12.865Z,1.27
2024-03-11T04:55:40.535Z,1.25
2024-03-11T04:58:08.544Z,1.50
2024-03-11T05:00:37.593Z,1.02
2024-03-11T05:03:05.406Z,1.10
2024-03-11T05:05:36.263Z,1.10
2024-03-11T05:08:05.129Z,1.13
2024-03-11T05:10:33.294Z,1.40
2024-03-11T05:13:01.085Z,1.20
2024-03-11T05:15:29.463Z,1.20
2024-03-11T05:17:58.486Z,1.15
2024-03-11T05:20:26.318Z,1.10
2024-03-11T05:22:54.069Z,2.03
2024-03-11T05:25:21.788Z,2.20
2024-03-11T05:27:52.196Z,2.55
2024-03-11T05:30:20.159Z,1.83
2024-03-11T05:32:48.505Z,1.70
2024-03-11T05:35:22.056Z,1.40
2024-03-11T05:37:52.028Z,1.40
2024-03-11T05:40:20.440Z,0.80
2024-03-11T05:42:49.387Z,0.82
2024-03-11T05:45:17.070Z,0.93
2024-03-11T05:47:46.591Z,0.95
2024-03-11T05:50:15.966Z,1.00
2024-03-11T05:52:47.265Z,0.80
2024-03-11T05:55:15.362Z,1.88
2024-03-11T05:57:44.638Z,1.38
2024-03-11T06:00:17.329Z,0.98
2024-03-11T06:02:46.736Z,1.13
2024-03-11T06:05:15.428Z,0.65
2024-03-11T06:07:44.207Z,0.90
2024-03-11T06:10:13.418Z,1.90
2024-03-11T06:12:41.212Z,0.95
2024-03-11T06:15:09.874Z,1.17
2024-03-11T06:17:37.609Z,1.48
2024-03-11T06:20:11.462Z,1.20
2024-03-11T06:22:40.460Z,1.05
2024-03-11T06:25:10.567Z,1.00
2024-03-11T06:27:40.656Z,1.00
2024-03-11T06:30:09.725Z,1.15
2024-03-11T06:32:37.884Z,1.45
2024-03-11T06:35:06.681Z,1.48
2024-03-11T06:37:34.749Z,1.40
2024-03-11T06:40:03.427Z,1.38
2024-03-11T06:42:31.378Z,2.13
2024-03-11T06:45:00.383Z,2.08
2024-03-11T06:47:28.356Z,1.40
2024-03-11T06:49:55.964Z,1.60
2024-03-11T06:52:25.034Z,2.08
2024-03-11T06:54:52.621Z,1.60
2024-03-11T06:57:20.257Z,1.88
2024-03-11T06:59:48.651Z,4.22
2024-03-11T07:02:21.983Z,3.97
2024-03-11T07:04:49.722Z,2.95
2024-03-11T07:07:17.357Z,3.15
2024-03-11T07:09:45.878Z,3.33
2024-03-11T07:12:13.420Z,4.68
2024-03-11T07:14:41.818Z,5.00
2024-03-11T07:17:12.009Z,4.53
2024-03-11T07:19:41.217Z,3.97
2024-03-11T07:22:09.267Z,2.35
2024-03-11T07:24:38.696Z,1.85
2024-03-11T07:27:08.537Z,1.52
2024-03-11T07:29:37.232Z,1.08
2024-03-11T07:32:05.019Z,0.90
2024-03-11T07:34:32.611Z,0.95
2024-03-11T07:37:03.005Z,1.20
2024-03-11T07:39:30.665Z,0.98
2024-03-11T07:41:58.562Z,0.95
2024-03-11T07:44:26.249Z,0.90
2024-03-11T07:46:53.794Z,1.00
2024-03-11T07:49:22.031Z,1.00
2024-03-11T07:51:49.671Z,0.88
2024-03-11T07:54:18.682Z,0.80
2024-03-11T07:56:46.286Z,1.02
2024-03-11T07:59:13.879Z,0.80
2024-03-11T08:01:41.809Z,0.90
2024-03-11T08:04:09.809Z,0.70
2024-03-11T08:06:37.364Z,1.13
2024-03-11T08:09:08.386Z,1.10
2024-03-11T08:11:38.131Z,1.00
2024-03-11T08:14:06.245Z,1.05
2024-03-11T08:16:33.906Z,1.15
2024-03-11T08:19:01.584Z,0.80
2024-03-11T08:21:29.142Z,1.00
2024-03-11T08:23:58.291Z,0.70
2024-03-11T08:26:26.278Z,0.90
2024-03-11T08:28:55.250Z,1.10
2024-03-11T08:31:22.866Z,1.00
2024-03-11T08:33:50.425Z,1.45
2024-03-11T08:36:19.116Z,1.40
2024-03-11T08:38:48.552Z,1.23
2024-03-11T08:41:16.753Z,1.02
2024-03-11T08:43:45.641Z,1.25
2024-03-11T08:46:17.600Z,1.20
2024-03-11T08:51:13.984Z,0.82
2024-03-11T08:53:42.421Z,1.10
2024-03-11T08:56:11.674Z,0.93
2024-03-11T08:58:41.124Z,0.75
2024-03-11T09:01:09.179Z,0.90
2024-03-11T09:03:40.278Z,1.00
2024-03-11T09:06:08.280Z,0.97
2024-03-11T09:08:37.295Z,0.60
2024-03-11T09:11:05.685Z,0.70
2024-03-11T09:13:33.539Z,0.90
2024-03-11T09:16:03.014Z,0.70
2024-03-11T09:18:30.798Z,0.95
2024-03-11T09:20:59.815Z,0.82
2024-03-11T09:23:27.895Z,0.90
2024-03-11T09:25:57.518Z,0.90
2024-03-11T09:28:25.109Z,0.80
2024-03-11T09:30:52.830Z,0.80
2024-03-11T09:33:22.516Z,0.85
2024-03-11T09:35:50.214Z,0.60
2024-03-11T09:38:20.685Z,0.77
2024-03-11T09:40:49.568Z,0.90
2024-03-11T09:43:18.746Z,0.80
2024-03-11T09:45:47.124Z,0.90
2024-03-11T09:48:15.477Z,0.70
2024-03-11T09:50:44.320Z,1.00
2024-03-11T09:53:15.058Z,0.88
2024-03-11T09:55:46.680Z,0.70
2024-03-11T09:58:17.599Z,0.82
2024-03-11T10:00:51.970Z,0.68
2024-03-11T10:03:23.399Z,0.80
2024-03-11T10:05:55.917Z,0.80
2024-03-11T10:11:09.772Z,0.70
2024-03-11T10:13:38.940Z,0.80
2024-03-11T10:16:15.530Z,0.60
2024-03-11T10:19:02.233Z,0.80
2024-03-11T10:21:30.705Z,0.95
2024-03-11T10:24:01.742Z,0.80
2024-03-11T10:26:31.755Z,0.60
2024-03-11T10:29:02.060Z,0.73
2024-03-11T10:31:32.825Z,0.47
2024-03-11T10:34:12.924Z,0.73
2024-03-11T10:36:42.251Z,0.40
2024-03-11T10:39:18.696Z,0.60
2024-03-11T10:41:47.525Z,0.30
2024-03-11T10:44:21.053Z,0.30
2024-03-11T10:46:50.139Z,0.65
2024-03-11T10:49:19.183Z,0.40
2024-03-11T10:51:47.547Z,0.32
2024-03-11T10:54:23.235Z,0.20
2024-03-11T10:56:53.636Z,0.40
2024-03-11T10:59:23.837Z,0.40
2024-03-11T11:01:56.950Z,0.80
2024-03-11T11:04:30.318Z,0.68
2024-03-11T11:06:59.695Z,0.60
2024-03-11T11:09:28.720Z,0.40
2024-03-11T11:11:56.913Z,0.50
2024-03-11T11:14:30.619Z,0.55
2024-03-11T11:16:58.967Z,0.50
2024-03-11T11:19:33.438Z,0.50
2024-03-11T11:22:02.705Z,0.40
2024-03-11T11:24:33.615Z,0.60
2024-03-11T11:27:07.381Z,0.50
2024-03-11T11:29:36.722Z,0.50
2024-03-11T11:32:06.200Z,0.68
2024-03-11T11:34:49.488Z,0.60
2024-03-11T11:37:31.901Z,0.68
2024-03-11T11:39:59.483Z,0.68
2024-03-11T11:42:36.498Z,0.40
2024-03-11T11:45:07.761Z,0.90
2024-03-11T11:47:37.183Z,0.80
2024-03-11T11:50:05.311Z,0.85
2024-03-11T11:52:33.009Z,0.77
2024-03-11T11:55:08.228Z,0.75
2024-03-11T11:57:38.688Z,0.82
2024-03-11T12:00:15.352Z,0.65
2024-03-11T12:02:49.903Z,0.70
2024-03-11T12:05:17.631Z,0.88
2024-03-11T12:07:48.705Z,0.63
2024-03-11T12:10:16.823Z,0.77
2024-03-11T12:12:46.481Z,0.80
2024-03-11T12:15:20.147Z,0.80
2024-03-11T12:17:49.154Z,0.70
2024-03-11T12:20:17.762Z,0.90
2024-03-11T12:22:45.359Z,0.77
2024-03-11T12:25:14.770Z,1.45
2024-03-11T12:27:43.238Z,1.25
2024-03-11T12:30:18.118Z,0.90
2024-03-11T12:32:55.591Z,0.90
2024-03-11T12:35:27.301Z,0.73
2024-03-11T12:37:54.925Z,0.70
2024-03-11T12:40:22.583Z,0.65
2024-03-11T12:42:51.244Z,0.90
2024-03-11T12:45:19.555Z,0.63
2024-03-11T12:47:50.032Z,0.70
2024-03-11T12:50:17.670Z,0.77
2024-03-11T12:52:45.186Z,1.05
2024-03-11T12:55:14.128Z,0.93
2024-03-11T12:57:42.100Z,1.10
2024-03-11T13:00:10.229Z,0.70
2024-03-11T13:02:37.747Z,0.88
2024-03-11T13:05:20.275Z,0.80
2024-03-11T13:07:49.430Z,0.73
2024-03-11T13:10:17.624Z,0.70
2024-03-11T13:12:45.347Z,1.00
2024-03-11T13:15:14.770Z,0.80
2024-03-11T13:17:43.192Z,1.08
2024-03-11T13:20:25.909Z,0.70
2024-03-11T13:22:56.566Z,0.65
2024-03-11T13:25:26.530Z,1.00
2024-03-11T13:27:54.135Z,0.90
2024-03-11T13:30:25.801Z,0.65
2024-03-11T13:35:26.115Z,1.20
2024-03-11T13:37:55.463Z,1.00
2024-03-11T13:40:23.769Z,0.90
2024-03-11T13:42:51.443Z,1.02
2024-03-11T13:45:19.383Z,1.13
2024-03-11T13:47:47.101Z,0.63
2024-03-11T13:50:17.587Z,1.05
2024-03-11T13:52:46.244Z,0.65
2024-03-11T13:55:16.591Z,1.00
2024-03-11T13:57:44.604Z,0.73
2024-03-11T14:00:19.018Z,0.70
2024-03-11T14:02:48.246Z,0.82
2024-03-11T14:05:16.177Z,1.17
2024-03-11T14:07:45.090Z,0.80
2024-03-11T14:10:12.669Z,1.20
2024-03-11T14:12:43.667Z,1.00
2024-03-11T14:15:11.974Z,0.93
2024-03-11T14:17:40.884Z,0.82
2024-03-11T14:20:20.005Z,0.90
2024-03-11T14:22:47.933Z,1.10
2024-03-11T14:25:17.518Z,1.10
2024-03-11T14:27:48.076Z,0.90
2024-03-11T14:30:17.553Z,0.80
2024-03-11T14:32:45.733Z,0.75
2024-03-11T14:35:16.889Z,0.95
2024-03-11T14:37:46.701Z,0.80
2024-03-11T14:40:30.548Z,0.98
2024-03-11T14:43:00.193Z,1.00
2024-03-11T14:45:29.593Z,1.10
2024-03-11T14:47:57.641Z,1.08
2024-03-11T14:50:30.474Z,1.38
2024-03-11T14:52:58.679Z,0.75
2024-03-11T14:55:33.588Z,0.93
2024-03-11T14:58:02.535Z,0.95
2024-03-11T15:00:37.077Z,1.02
2024-03-11T15:03:05.529Z,1.13
2024-03-11T15:05:39.853Z,0.93
2024-03-11T15:08:09.368Z,2.35
2024-03-11T15:10:37.717Z,1.98
2024-03-11T15:13:09.407Z,1.00
2024-03-11T15:15:37.733Z,1.00
2024-03-11T15:18:05.872Z,1.00
2024-03-11T15:20:35.067Z,1.30
2024-03-11T15:23:07.019Z,0.95
2024-03-11T15:25:36.197Z,1.10
2024-03-11T15:28:03.985Z,0.75
2024-03-11T15:30:34.628Z,0.90
2024-03-11T15:33:03.731Z,1.05
2024-03-11T15:35:31.268Z,0.98
2024-03-11T15:37:59.341Z,0.88
2024-03-11T15:40:27.249Z,0.77
2024-03-11T15:42:56.404Z,0.80
2024-03-11T15:45:25.035Z,0.80
2024-03-11T15:47:54.032Z,0.70
2024-03-11T15:50:21.638Z,0.60
2024-03-11T15:52:50.643Z,0.93
2024-03-11T15:55:23.726Z,0.60
2024-03-11T15:57:53.046Z,0.90
2024-03-11T16:00:21.342Z,0.70
2024-03-11T16:02:49.424Z,0.70
2024-03-11T16:05:18.948Z,0.82
2024-03-11T16:07:47.727Z,1.10
2024-03-11T16:10:16.542Z,0.80
2024-03-11T16:12:44.803Z,0.80
2024-03-11T16:15:13.389Z,1.00
2024-03-11T16:17:41.754Z,0.70
2024-03-11T16:20:10.930Z,0.90
2024-03-11T16:22:39.577Z,0.80
2024-03-11T16:25:12.449Z,0.80
2024-03-11T16:27:40.942Z,0.80
2024-03-11T16:30:09.992Z,0.82
2024-03-11T16:32:40.505Z,0.88
2024-03-11T16:35:07.697Z,0.75
2024-03-11T16:37:35.740Z,0.60
2024-03-11T16:40:12.680Z,0.80
2024-03-11T16:42:41.296Z,0.70
2024-03-11T16:45:09.754Z,0.98
2024-03-11T16:47:40.041Z,0.80
2024-03-11T16:50:08.921Z,0.88
2024-03-11T16:52:39.108Z,1.13
2024-03-11T16:55:09.352Z,0.98
2024-03-11T16:57:38.661Z,0.52
2024-03-11T17:00:11.152Z,0.80
2024-03-11T17:02:43.588Z,0.93
2024-03-11T17:05:13.180Z,1.00
2024-03-11T17:07:42.411Z,0.90
2024-03-11T17:10:11.435Z,1.13
2024-03-11T17:12:44.616Z,1.05
2024-03-11T17:15:11.991Z,1.02
2024-03-11T17:17:46.449Z,1.02
2024-03-11T17:20:21.641Z,0.90
2024-03-11T17:22:48.548Z,1.08
2024-03-11T17:25:19.768Z,1.25
2024-03-11T17:27:46.424Z,0.90
2024-03-11T17:30:22.002Z,1.38
2024-03-11T17:32:49.188Z,1.58
2024-03-11T17:35:17.034Z,0.88
2024-03-11T17:37:46.182Z,1.30
2024-03-11T17:40:16.106Z,1.15
2024-03-11T17:42:44.103Z,1.38
2024-03-11T17:45:15.761Z,1.10
2024-03-11T17:47:42.981Z,1.00
2024-03-11T17:50:14.754Z,1.10
2024-03-11T17:52:45.047Z,0.70
2024-03-11T17:55:15.504Z,1.20
2024-03-11T17:57:44.196Z,1.00
2024-03-11T18:00:12.486Z,0.80
2024-03-11T18:02:39.834Z,0.90
2024-03-11T18:05:09.116Z,1.00
2024-03-11T18:07:36.130Z,0.82
2024-03-11T18:10:05.617Z,0.60
2024-03-11T18:12:32.801Z,1.40
2024-03-11T18:15:06.179Z,0.90
2024-03-11T18:17:33.817Z,0.98
2024-03-11T18:20:11.192Z,0.82
2024-03-11T18:22:41.049Z,0.80
2024-03-11T18:25:11.944Z,1.42
2024-03-11T18:27:38.805Z,1.35
2024-03-11T18:30:09.971Z,0.95
2024-03-11T18:32:36.557Z,0.83
2024-03-11T18:35:04.359Z,1.00
2024-03-11T18:37:31.978Z,1.17
2024-03-11T18:39:59.743Z,1.27
2024-03-11T18:42:28.069Z,0.85
2024-03-11T18:44:58.285Z,1.20
2024-03-11T18:47:27.286Z,0.95
2024-03-11T18:49:55.155Z,1.15
2024-03-11T18:52:23.335Z,1.17
2024-03-11T18:54:51.440Z,1.00
2024-03-11T18:57:19.116Z,1.20
2024-03-11T18:59:46.697Z,1.23
2024-03-11T19:02:15.611Z,1.13
2024-03-11T19:04:45.179Z,1.45
2024-03-11T19:07:13.496Z,1.50
2024-03-11T19:09:41.204Z,1.10
2024-03-11T19:12:09.419Z,1.10
2024-03-11T19:14:37.028Z,1.38
2024-03-11T19:17:04.793Z,1.00
2024-03-11T19:19:33.626Z,1.10
2024-03-11T19:22:02.612Z,1.10
2024-03-11T19:24:30.243Z,1.02
2024-03-11T19:27:03.182Z,1.10
2024-03-11T19:29:30.955Z,1.00
2024-03-11T19:31:58.874Z,2.25
2024-03-11T19:34:28.288Z,1.20
2024-03-11T19:37:05.969Z,1.17
2024-03-11T19:39:44.533Z,0.93
2024-03-11T19:42:25.597Z,1.40
2024-03-11T19:45:02.947Z,1.00
2024-03-11T19:47:46.850Z,0.93
2024-03-11T19:50:23.399Z,0.80
2024-03-11T19:53:10.915Z,1.00
2024-03-11T19:56:01.628Z,0.93
2024-03-11T19:58:55.552Z,1.10
2024-03-11T20:01:41.200Z,0.90
2024-03-11T20:04:28.224Z,1.00
2024-03-11T20:07:03.498Z,1.00
2024-03-11T20:09:58.622Z,0.98
2024-03-11T20:12:42.256Z,1.05
2024-03-11T20:15:24.028Z,0.93
2024-03-11T20:18:08.347Z,1.10
2024-03-11T20:20:49.512Z,0.65
2024-03-11T20:23:44.130Z,0.93
2024-03-11T20:26:17.770Z,1.65
2024-03-11T20:28:51.641Z,0.90
2024-03-11T20:31:20.082Z,0.90
2024-03-11T20:33:48.003Z,1.38
2024-03-11T20:36:17.942Z,0.98
2024-03-11T20:38:46.571Z,1.40
2024-03-11T20:41:14.972Z,1.05
2024-03-11T20:43:42.943Z,1.17
2024-03-11T20:46:12.492Z,1.35
2024-03-11T20:48:40.787Z,1.10
2024-03-11T20:51:08.498Z,1.10
2024-03-11T20:53:36.043Z,1.30
2024-03-11T20:56:04.172Z,1.25
2024-03-11T20:58:31.753Z,1.30
2024-03-11T21:00:59.948Z,1.33
2024-03-11T21:03:29.153Z,1.30
2024-03-11T21:05:57.523Z,1.58
2024-03-11T21:08:25.083Z,1.42
2024-03-11T21:10:54.363Z,1.52
2024-03-11T21:13:22.183Z,1.52
2024-03-11T21:15:50.739Z,1.42
2024-03-11T21:18:22.887Z,1.10
2024-03-11T21:23:42.683Z,1.00
2024-03-11T21:26:18.951Z,1.10
2024-03-11T21:28:48.193Z,1.10
2024-03-11T21:31:17.822Z,1.40
2024-03-11T21:33:46.291Z,1.00
2024-03-11T21:36:13.932Z,1.48
2024-03-11T21:38:43.199Z,2.20
2024-03-11T21:41:10.818Z,1.10
2024-03-11T21:43:38.449Z,1.30
2024-03-11T21:46:10.673Z,1.08
2024-03-11T21:48:38.623Z,1.20
2024-03-11T21:51:06.430Z,1.10
2024-03-11T21:53:35.650Z,1.33
2024-03-11T21:56:07.532Z,1.30
2024-03-11T21:58:35.166Z,1.33
2024-03-11T22:01:03.135Z,1.38
2024-03-11T22:03:31.443Z,1.38
2024-03-11T22:05:59.684Z,1.88
2024-03-11T22:08:27.232Z,1.25
2024-03-11T22:10:54.790Z,1.20
2024-03-11T22:13:24.143Z,1.00
2024-03-11T22:15:51.950Z,1.15
2024-03-11T22:18:20.663Z,0.90
2024-03-11T22:20:48.437Z,1.27
2024-03-11T22:23:15.974Z,1.23
2024-03-11T22:25:43.528Z,1.15
2024-03-11T22:28:12.595Z,0.85
2024-03-11T22:30:41.599Z,0.90
2024-03-11T22:33:09.519Z,1.33
2024-03-11T22:35:37.207Z,1.00
2024-03-11T22:38:04.875Z,1.02
2024-03-11T22:40:33.795Z,1.70
2024-03-11T22:43:01.636Z,1.00
2024-03-11T22:45:30.072Z,0.90
2024-03-11T22:48:00.218Z,1.15
2024-03-11T22:50:27.899Z,0.90
2024-03-11T22:52:55.520Z,0.98
2024-03-11T22:55:23.070Z,1.00
2024-03-11T22:57:50.636Z,0.90
2024-03-11T23:03:14.132Z,0.82
2024-03-11T23:05:41.730Z,1.13
2024-03-11T23:08:09.320Z,5.18
2024-03-11T23:10:36.868Z,1.63
2024-03-11T23:13:05.642Z,1.15
2024-03-11T23:15:36.018Z,0.85
2024-03-11T23:18:05.931Z,1.10
2024-03-11T23:20:35.900Z,0.80
2024-03-11T23:23:05.138Z,1.00
2024-03-11T23:25:37.537Z,1.50
2024-03-11T23:28:05.515Z,1.10
2024-03-11T23:30:34.029Z,1.05
2024-03-11T23:33:01.889Z,1.10
2024-03-11T23:35:29.951Z,1.30
2024-03-11T23:38:01.793Z,1.20
2024-03-11T23:40:29.825Z,0.98
2024-03-11T23:42:57.985Z,0.85
2024-03-11T23:45:27.237Z,0.90
2024-03-11T23:47:57.630Z,1.40
2024-03-11T23:50:25.844Z,1.25
2024-03-11T23:52:54.092Z,1.02
2024-03-11T23:55:24.437Z,1.45
2024-03-11T23:57:53.038Z,1.48
